sensor_id;sensor_type;location;lat;lon;timestamp;temperature;humidity
53520;DHT22;39397;53.204;5.778;2023-07-13T00:02:15;17.10;99.90
53520;DHT22;39397;53.204;5.778;2023-07-13T00:04:41;17.00;99.90
53520;DHT22;39397;53.204;5.778;2023-07-13T00:07:08;17.00;99.90
53520;DHT22;39397;53.204;5.778;2023-07-13T00:09:34;16.90;99.90
53520;DHT22;39397;53.204;5.778;2023-07-13T00:12:00;16.90;99.90
53520;DHT22;39397;53.204;5.778;2023-07-13T00:14:27;17.00;99.90
53520;DHT22;39397;53.204;5.778;2023-07-13T00:16:54;17.00;99.90
53520;DHT22;39397;53.204;5.778;2023-07-13T00:19:19;16.90;99.90
53520;DHT22;39397;53.204;5.778;2023-07-13T00:21:45;16.90;99.90
53520;DHT22;39397;53.204;5.778;2023-07-13T00:24:13;17.00;99.90
53520;DHT22;39397;53.204;5.778;2023-07-13T00:26:40;17.00;99.90
53520;DHT22;39397;53.204;5.778;2023-07-13T00:29:06;17.00;99.90
53520;DHT22;39397;53.204;5.778;2023-07-13T00:31:34;17.00;99.90
53520;DHT22;39397;53.204;5.778;2023-07-13T00:34:00;16.90;99.90
53520;DHT22;39397;53.204;5.778;2023-07-13T00:36:26;16.90;99.90
53520;DHT22;39397;53.204;5.778;2023-07-13T00:38:51;16.90;99.90
53520;DHT22;39397;53.204;5.778;2023-07-13T00:41:18;16.90;99.90
53520;DHT22;39397;53.204;5.778;2023-07-13T00:43:44;16.90;99.90
53520;DHT22;39397;53.204;5.778;2023-07-13T00:46:15;17.00;99.90
53520;DHT22;39397;53.204;5.778;2023-07-13T00:48:41;16.90;99.90
53520;DHT22;39397;53.204;5.778;2023-07-13T00:51:07;16.80;99.90
53520;DHT22;39397;53.204;5.778;2023-07-13T00:53:34;16.80;99.90
53520;DHT22;39397;53.204;5.778;2023-07-13T00:56:01;16.70;99.90
53520;DHT22;39397;53.204;5.778;2023-07-13T00:58:27;16.80;99.90
53520;DHT22;39397;53.204;5.778;2023-07-13T01:00:53;16.70;99.90
53520;DHT22;39397;53.204;5.778;2023-07-13T01:03:19;16.80;99.90
53520;DHT22;39397;53.204;5.778;2023-07-13T01:05:47;16.70;99.90
53520;DHT22;39397;53.204;5.778;2023-07-13T01:08:13;16.60;99.90
53520;DHT22;39397;53.204;5.778;2023-07-13T01:10:39;16.70;99.90
53520;DHT22;39397;53.204;5.778;2023-07-13T01:13:10;16.50;99.90
53520;DHT22;39397;53.204;5.778;2023-07-13T01:15:47;16.50;99.90
53520;DHT22;39397;53.204;5.778;2023-07-13T01:18:25;16.70;99.90
53520;DHT22;39397;53.204;5.778;2023-07-13T01:21:01;16.50;99.90
53520;DHT22;39397;53.204;5.778;2023-07-13T01:23:28;16.50;99.90
53520;DHT22;39397;53.204;5.778;2023-07-13T01:25:54;16.60;99.90
53520;DHT22;39397;53.204;5.778;2023-07-13T01:28:21;16.60;99.90
53520;DHT22;39397;53.204;5.778;2023-07-13T01:30:47;16.50;99.90
53520;DHT22;39397;53.204;5.778;2023-07-13T01:33:14;16.50;99.90
53520;DHT22;39397;53.204;5.778;2023-07-13T01:35:42;16.50;99.90
53520;DHT22;39397;53.204;5.778;2023-07-13T01:38:09;16.40;99.90
53520;DHT22;39397;53.204;5.778;2023-07-13T01:40:37;16.60;99.90
53520;DHT22;39397;53.204;5.778;2023-07-13T01:43:03;16.70;99.90
53520;DHT22;39397;53.204;5.778;2023-07-13T01:45:28;16.70;99.90
53520;DHT22;39397;53.204;5.778;2023-07-13T01:47:54;16.60;99.90
53520;DHT22;39397;53.204;5.778;2023-07-13T01:50:20;16.70;99.90
53520;DHT22;39397;53.204;5.778;2023-07-13T01:52:46;17.60;99.90
53520;DHT22;39397;53.204;5.778;2023-07-13T01:55:12;16.60;99.90
53520;DHT22;39397;53.204;5.778;2023-07-13T01:57:37;16.70;99.90
53520;DHT22;39397;53.204;5.778;2023-07-13T02:00:04;16.60;99.90
53520;DHT22;39397;53.204;5.778;2023-07-13T02:02:31;16.60;99.90
53520;DHT22;39397;53.204;5.778;2023-07-13T02:04:57;16.60;99.90
53520;DHT22;39397;53.204;5.778;2023-07-13T02:07:22;16.60;99.90
53520;DHT22;39397;53.204;5.778;2023-07-13T02:09:48;16.50;99.90
53520;DHT22;39397;53.204;5.778;2023-07-13T02:12:14;16.70;99.90
53520;DHT22;39397;53.204;5.778;2023-07-13T02:14:39;16.60;99.90
53520;DHT22;39397;53.204;5.778;2023-07-13T02:17:06;16.60;99.90
53520;DHT22;39397;53.204;5.778;2023-07-13T02:19:31;16.50;99.90
53520;DHT22;39397;53.204;5.778;2023-07-13T02:21:57;16.50;99.90
53520;DHT22;39397;53.204;5.778;2023-07-13T02:24:23;16.70;99.90
53520;DHT22;39397;53.204;5.778;2023-07-13T02:26:49;16.60;99.90
53520;DHT22;39397;53.204;5.778;2023-07-13T02:29:14;16.60;99.90
53520;DHT22;39397;53.204;5.778;2023-07-13T02:31:40;16.60;99.90
53520;DHT22;39397;53.204;5.778;2023-07-13T02:34:06;16.60;99.90
53520;DHT22;39397;53.204;5.778;2023-07-13T02:36:32;16.60;99.90
53520;DHT22;39397;53.204;5.778;2023-07-13T02:39:01;16.50;99.90
53520;DHT22;39397;53.204;5.778;2023-07-13T02:41:28;16.60;99.90
53520;DHT22;39397;53.204;5.778;2023-07-13T02:43:54;16.60;99.90
53520;DHT22;39397;53.204;5.778;2023-07-13T02:46:22;16.60;99.90
53520;DHT22;39397;53.204;5.778;2023-07-13T02:48:49;16.50;99.90
53520;DHT22;39397;53.204;5.778;2023-07-13T02:51:15;16.50;99.90
53520;DHT22;39397;53.204;5.778;2023-07-13T02:53:40;16.60;99.90
53520;DHT22;39397;53.204;5.778;2023-07-13T02:56:06;16.50;99.90
53520;DHT22;39397;53.204;5.778;2023-07-13T02:58:32;16.50;99.90
53520;DHT22;39397;53.204;5.778;2023-07-13T03:01:08;16.50;99.90
53520;DHT22;39397;53.204;5.778;2023-07-13T03:03:35;16.60;99.90
53520;DHT22;39397;53.204;5.778;2023-07-13T03:06:02;16.30;99.90
53520;DHT22;39397;53.204;5.778;2023-07-13T03:08:29;16.20;99.90
53520;DHT22;39397;53.204;5.778;2023-07-13T03:11:03;16.30;99.90
53520;DHT22;39397;53.204;5.778;2023-07-13T03:13:29;16.40;99.90
53520;DHT22;39397;53.204;5.778;2023-07-13T03:15:55;16.30;99.90
53520;DHT22;39397;53.204;5.778;2023-07-13T03:18:20;16.20;99.90
53520;DHT22;39397;53.204;5.778;2023-07-13T03:20:46;16.00;99.90
53520;DHT22;39397;53.204;5.778;2023-07-13T03:23:12;16.20;99.90
53520;DHT22;39397;53.204;5.778;2023-07-13T03:25:37;16.10;99.90
53520;DHT22;39397;53.204;5.778;2023-07-13T03:28:03;16.10;99.90
53520;DHT22;39397;53.204;5.778;2023-07-13T03:30:31;16.20;99.90
53520;DHT22;39397;53.204;5.778;2023-07-13T03:32:56;16.10;99.90
53520;DHT22;39397;53.204;5.778;2023-07-13T03:35:22;16.00;99.90
53520;DHT22;39397;53.204;5.778;2023-07-13T03:37:48;16.00;99.90
53520;DHT22;39397;53.204;5.778;2023-07-13T03:40:13;15.90;99.90
53520;DHT22;39397;53.204;5.778;2023-07-13T03:42:39;15.90;99.90
53520;DHT22;39397;53.204;5.778;2023-07-13T03:45:05;15.90;99.90
53520;DHT22;39397;53.204;5.778;2023-07-13T03:47:31;16.00;99.90
53520;DHT22;39397;53.204;5.778;2023-07-13T03:49:57;15.90;99.90
53520;DHT22;39397;53.204;5.778;2023-07-13T03:52:22;16.00;99.90
53520;DHT22;39397;53.204;5.778;2023-07-13T03:54:48;16.00;99.90
53520;DHT22;39397;53.204;5.778;2023-07-13T03:57:14;16.00;99.90
53520;DHT22;39397;53.204;5.778;2023-07-13T03:59:40;16.00;99.90
53520;DHT22;39397;53.204;5.778;2023-07-13T04:02:05;16.10;99.90
53520;DHT22;39397;53.204;5.778;2023-07-13T04:04:31;16.00;99.90
53520;DHT22;39397;53.204;5.778;2023-07-13T04:06:57;16.00;99.90
53520;DHT22;39397;53.204;5.778;2023-07-13T04:09:24;16.10;99.90
53520;DHT22;39397;53.204;5.778;2023-07-13T04:11:50;16.10;99.90
53520;DHT22;39397;53.204;5.778;2023-07-13T04:14:16;16.00;99.90
53520;DHT22;39397;53.204;5.778;2023-07-13T04:16:42;16.20;99.90
53520;DHT22;39397;53.204;5.778;2023-07-13T04:19:09;16.10;99.90
53520;DHT22;39397;53.204;5.778;2023-07-13T04:21:36;16.10;99.90
53520;DHT22;39397;53.204;5.778;2023-07-13T04:24:02;16.10;99.90
53520;DHT22;39397;53.204;5.778;2023-07-13T04:26:28;16.00;99.90
53520;DHT22;39397;53.204;5.778;2023-07-13T04:28:56;16.20;99.90
53520;DHT22;39397;53.204;5.778;2023-07-13T04:31:22;16.10;99.90
53520;DHT22;39397;53.204;5.778;2023-07-13T04:33:48;16.30;99.90
53520;DHT22;39397;53.204;5.778;2023-07-13T04:36:15;16.30;99.90
53520;DHT22;39397;53.204;5.778;2023-07-13T04:38:41;16.30;99.90
53520;DHT22;39397;53.204;5.778;2023-07-13T04:41:08;16.30;99.90
53520;DHT22;39397;53.204;5.778;2023-07-13T04:43:34;16.30;99.90
53520;DHT22;39397;53.204;5.778;2023-07-13T04:46:09;16.30;99.90
53520;DHT22;39397;53.204;5.778;2023-07-13T04:48:35;16.40;99.90
53520;DHT22;39397;53.204;5.778;2023-07-13T04:51:01;16.40;99.90
53520;DHT22;39397;53.204;5.778;2023-07-13T04:53:28;16.40;99.90
53520;DHT22;39397;53.204;5.778;2023-07-13T04:55:54;16.40;99.90
53520;DHT22;39397;53.204;5.778;2023-07-13T04:58:20;16.50;99.90
53520;DHT22;39397;53.204;5.778;2023-07-13T05:00:47;16.30;99.90
53520;DHT22;39397;53.204;5.778;2023-07-13T05:03:12;16.60;99.90
53520;DHT22;39397;53.204;5.778;2023-07-13T05:05:38;16.60;99.90
53520;DHT22;39397;53.204;5.778;2023-07-13T05:08:04;16.60;99.90
53520;DHT22;39397;53.204;5.778;2023-07-13T05:10:30;16.70;99.90
53520;DHT22;39397;53.204;5.778;2023-07-13T05:12:55;16.60;99.90
53520;DHT22;39397;53.204;5.778;2023-07-13T05:15:22;16.80;99.90
53520;DHT22;39397;53.204;5.778;2023-07-13T05:17:48;16.80;99.90
53520;DHT22;39397;53.204;5.778;2023-07-13T05:20:14;16.90;99.90
53520;DHT22;39397;53.204;5.778;2023-07-13T05:22:41;17.00;99.90
53520;DHT22;39397;53.204;5.778;2023-07-13T05:25:07;17.10;99.90
53520;DHT22;39397;53.204;5.778;2023-07-13T05:27:33;17.10;99.90
53520;DHT22;39397;53.204;5.778;2023-07-13T05:30:00;17.20;99.90
53520;DHT22;39397;53.204;5.778;2023-07-13T05:32:26;17.30;99.90
53520;DHT22;39397;53.204;5.778;2023-07-13T05:34:52;17.30;99.90
53520;DHT22;39397;53.204;5.778;2023-07-13T05:37:19;17.40;99.90
53520;DHT22;39397;53.204;5.778;2023-07-13T05:39:44;17.50;99.90
53520;DHT22;39397;53.204;5.778;2023-07-13T05:42:10;17.60;99.90
53520;DHT22;39397;53.204;5.778;2023-07-13T05:44:36;17.70;99.90
53520;DHT22;39397;53.204;5.778;2023-07-13T05:47:02;17.80;99.90
53520;DHT22;39397;53.204;5.778;2023-07-13T05:49:28;17.80;99.90
53520;DHT22;39397;53.204;5.778;2023-07-13T05:51:56;17.90;99.90
53520;DHT22;39397;53.204;5.778;2023-07-13T05:54:22;18.00;99.90
53520;DHT22;39397;53.204;5.778;2023-07-13T05:56:47;18.20;99.90
53520;DHT22;39397;53.204;5.778;2023-07-13T05:59:13;18.20;99.90
53520;DHT22;39397;53.204;5.778;2023-07-13T06:01:39;18.30;99.90
53520;DHT22;39397;53.204;5.778;2023-07-13T06:04:05;18.40;99.90
53520;DHT22;39397;53.204;5.778;2023-07-13T06:06:30;18.40;99.90
53520;DHT22;39397;53.204;5.778;2023-07-13T06:08:56;18.50;99.90
53520;DHT22;39397;53.204;5.778;2023-07-13T06:11:24;18.40;99.90
53520;DHT22;39397;53.204;5.778;2023-07-13T06:13:51;18.60;99.90
53520;DHT22;39397;53.204;5.778;2023-07-13T06:16:17;20.90;99.90
53520;DHT22;39397;53.204;5.778;2023-07-13T06:18:43;18.70;99.90
53520;DHT22;39397;53.204;5.778;2023-07-13T06:21:11;18.70;99.90
53520;DHT22;39397;53.204;5.778;2023-07-13T06:23:38;18.70;99.90
53520;DHT22;39397;53.204;5.778;2023-07-13T06:26:04;18.80;99.90
53520;DHT22;39397;53.204;5.778;2023-07-13T06:28:31;18.90;99.90
53520;DHT22;39397;53.204;5.778;2023-07-13T06:30:57;18.90;99.90
53520;DHT22;39397;53.204;5.778;2023-07-13T06:33:24;19.00;99.90
53520;DHT22;39397;53.204;5.778;2023-07-13T06:35:50;19.10;99.90
53520;DHT22;39397;53.204;5.778;2023-07-13T06:38:15;19.10;99.90
53520;DHT22;39397;53.204;5.778;2023-07-13T06:40:41;19.10;99.90
53520;DHT22;39397;53.204;5.778;2023-07-13T06:43:07;19.10;99.90
53520;DHT22;39397;53.204;5.778;2023-07-13T06:45:40;19.20;99.90
53520;DHT22;39397;53.204;5.778;2023-07-13T06:48:06;19.30;99.90
53520;DHT22;39397;53.204;5.778;2023-07-13T06:50:33;19.30;99.90
53520;DHT22;39397;53.204;5.778;2023-07-13T06:52:59;19.40;99.90
53520;DHT22;39397;53.204;5.778;2023-07-13T06:55:25;19.50;99.90
53520;DHT22;39397;53.204;5.778;2023-07-13T06:57:51;19.70;99.90
53520;DHT22;39397;53.204;5.778;2023-07-13T07:00:17;19.60;99.90
53520;DHT22;39397;53.204;5.778;2023-07-13T07:02:43;19.70;99.90
53520;DHT22;39397;53.204;5.778;2023-07-13T07:05:09;19.70;99.90
53520;DHT22;39397;53.204;5.778;2023-07-13T07:07:35;19.70;99.90
53520;DHT22;39397;53.204;5.778;2023-07-13T07:10:01;19.90;99.90
53520;DHT22;39397;53.204;5.778;2023-07-13T07:12:27;19.90;99.90
53520;DHT22;39397;53.204;5.778;2023-07-13T07:14:53;20.10;99.90
53520;DHT22;39397;53.204;5.778;2023-07-13T07:17:18;20.20;99.90
53520;DHT22;39397;53.204;5.778;2023-07-13T07:19:44;20.20;99.90
53520;DHT22;39397;53.204;5.778;2023-07-13T07:22:10;20.40;99.90
53520;DHT22;39397;53.204;5.778;2023-07-13T07:24:35;20.40;99.90
53520;DHT22;39397;53.204;5.778;2023-07-13T07:27:01;20.30;99.90
53520;DHT22;39397;53.204;5.778;2023-07-13T07:29:27;20.30;99.90
53520;DHT22;39397;53.204;5.778;2023-07-13T07:31:53;20.10;99.90
53520;DHT22;39397;53.204;5.778;2023-07-13T07:34:19;20.10;99.90
53520;DHT22;39397;53.204;5.778;2023-07-13T07:36:45;20.00;99.90
53520;DHT22;39397;53.204;5.778;2023-07-13T07:39:11;20.10;99.90
53520;DHT22;39397;53.204;5.778;2023-07-13T07:41:37;20.20;99.90
53520;DHT22;39397;53.204;5.778;2023-07-13T07:44:03;20.20;99.90
53520;DHT22;39397;53.204;5.778;2023-07-13T07:46:29;20.20;99.90
53520;DHT22;39397;53.204;5.778;2023-07-13T07:48:55;20.20;99.90
53520;DHT22;39397;53.204;5.778;2023-07-13T07:51:21;20.10;99.90
53520;DHT22;39397;53.204;5.778;2023-07-13T07:53:47;20.10;99.90
53520;DHT22;39397;53.204;5.778;2023-07-13T07:56:14;20.20;99.90
53520;DHT22;39397;53.204;5.778;2023-07-13T07:58:42;20.30;99.90
53520;DHT22;39397;53.204;5.778;2023-07-13T08:01:08;20.50;99.90
53520;DHT22;39397;53.204;5.778;2023-07-13T08:03:34;20.70;99.90
53520;DHT22;39397;53.204;5.778;2023-07-13T08:06:01;20.60;99.90
53520;DHT22;39397;53.204;5.778;2023-07-13T08:08:27;20.50;99.90
53520;DHT22;39397;53.204;5.778;2023-07-13T08:10:53;20.60;99.90
53520;DHT22;39397;53.204;5.778;2023-07-13T08:13:19;20.70;99.90
53520;DHT22;39397;53.204;5.778;2023-07-13T08:15:45;20.40;99.90
53520;DHT22;39397;53.204;5.778;2023-07-13T08:18:11;21.00;99.90
53520;DHT22;39397;53.204;5.778;2023-07-13T08:20:40;21.00;99.90
53520;DHT22;39397;53.204;5.778;2023-07-13T08:23:07;21.00;99.90
53520;DHT22;39397;53.204;5.778;2023-07-13T08:25:34;21.10;99.90
53520;DHT22;39397;53.204;5.778;2023-07-13T08:28:01;21.10;99.90
53520;DHT22;39397;53.204;5.778;2023-07-13T08:30:27;21.20;99.70
53520;DHT22;39397;53.204;5.778;2023-07-13T08:32:53;21.20;99.70
53520;DHT22;39397;53.204;5.778;2023-07-13T08:35:19;21.30;99.50
53520;DHT22;39397;53.204;5.778;2023-07-13T08:37:44;21.50;99.10
53520;DHT22;39397;53.204;5.778;2023-07-13T08:40:11;21.70;98.90
53520;DHT22;39397;53.204;5.778;2023-07-13T08:42:55;21.70;98.40
53520;DHT22;39397;53.204;5.778;2023-07-13T08:45:47;21.60;97.50
53520;DHT22;39397;53.204;5.778;2023-07-13T08:48:49;21.50;97.90
53520;DHT22;39397;53.204;5.778;2023-07-13T08:54:02;21.30;97.70
53520;DHT22;39397;53.204;5.778;2023-07-13T08:56:31;21.20;98.50
53520;DHT22;39397;53.204;5.778;2023-07-13T08:59:15;21.30;98.20
53520;DHT22;39397;53.204;5.778;2023-07-13T09:02:16;21.20;97.80
53520;DHT22;39397;53.204;5.778;2023-07-13T09:16:01;21.10;97.10
53520;DHT22;39397;53.204;5.778;2023-07-13T09:18:35;20.90;97.70
53520;DHT22;39397;53.204;5.778;2023-07-13T09:21:08;20.90;97.80
53520;DHT22;39397;53.204;5.778;2023-07-13T09:23:36;20.90;97.50
53520;DHT22;39397;53.204;5.778;2023-07-13T09:26:16;21.00;98.10
53520;DHT22;39397;53.204;5.778;2023-07-13T09:28:45;21.00;97.20
53520;DHT22;39397;53.204;5.778;2023-07-13T09:31:24;20.90;97.00
53520;DHT22;39397;53.204;5.778;2023-07-13T09:33:52;21.10;96.50
53520;DHT22;39397;53.204;5.778;2023-07-13T09:39:15;21.30;96.10
53520;DHT22;39397;53.204;5.778;2023-07-13T09:44:26;21.30;95.10
53520;DHT22;39397;53.204;5.778;2023-07-13T09:46:55;21.30;95.80
53520;DHT22;39397;53.204;5.778;2023-07-13T09:49:36;21.40;95.60
53520;DHT22;39397;53.204;5.778;2023-07-13T09:52:05;21.60;96.00
53520;DHT22;39397;53.204;5.778;2023-07-13T09:54:34;21.80;95.30
53520;DHT22;39397;53.204;5.778;2023-07-13T09:57:03;22.00;95.30
53520;DHT22;39397;53.204;5.778;2023-07-13T09:59:32;22.00;95.20
53520;DHT22;39397;53.204;5.778;2023-07-13T10:01:59;22.00;95.50
53520;DHT22;39397;53.204;5.778;2023-07-13T10:04:33;21.90;95.20
53520;DHT22;39397;53.204;5.778;2023-07-13T10:07:12;21.90;95.00
53520;DHT22;39397;53.204;5.778;2023-07-13T10:09:38;21.70;95.40
53520;DHT22;39397;53.204;5.778;2023-07-13T10:12:16;21.40;95.90
53520;DHT22;39397;53.204;5.778;2023-07-13T10:14:43;21.50;95.30
53520;DHT22;39397;53.204;5.778;2023-07-13T10:17:13;21.60;95.90
53520;DHT22;39397;53.204;5.778;2023-07-13T10:19:41;21.80;95.70
53520;DHT22;39397;53.204;5.778;2023-07-13T10:23:03;22.00;95.30
53520;DHT22;39397;53.204;5.778;2023-07-13T10:25:21;22.20;94.20
53520;DHT22;39397;53.204;5.778;2023-07-13T10:27:51;22.10;93.30
53520;DHT22;39397;53.204;5.778;2023-07-13T10:30:21;22.10;94.20
53520;DHT22;39397;53.204;5.778;2023-07-13T10:32:51;22.20;94.30
53520;DHT22;39397;53.204;5.778;2023-07-13T10:35:20;22.40;94.20
53520;DHT22;39397;53.204;5.778;2023-07-13T10:38:01;22.60;93.60
53520;DHT22;39397;53.204;5.778;2023-07-13T10:40:44;22.20;92.80
53520;DHT22;39397;53.204;5.778;2023-07-13T10:43:29;22.30;93.70
53520;DHT22;39397;53.204;5.778;2023-07-13T10:45:59;22.40;94.00
53520;DHT22;39397;53.204;5.778;2023-07-13T10:48:25;22.60;93.90
53520;DHT22;39397;53.204;5.778;2023-07-13T10:50:53;22.40;93.50
53520;DHT22;39397;53.204;5.778;2023-07-13T10:56:05;22.40;92.90
53520;DHT22;39397;53.204;5.778;2023-07-13T10:58:43;22.10;92.10
53520;DHT22;39397;53.204;5.778;2023-07-13T11:01:14;21.90;92.60
53520;DHT22;39397;53.204;5.778;2023-07-13T11:06:11;22.10;93.00
53520;DHT22;39397;53.204;5.778;2023-07-13T11:08:52;22.00;92.70
53520;DHT22;39397;53.204;5.778;2023-07-13T11:16:33;22.00;92.80
53520;DHT22;39397;53.204;5.778;2023-07-13T11:21:31;21.90;93.30
53520;DHT22;39397;53.204;5.778;2023-07-13T11:24:28;22.10;92.90
53520;DHT22;39397;53.204;5.778;2023-07-13T11:26:52;22.20;92.80
53520;DHT22;39397;53.204;5.778;2023-07-13T11:31:59;22.60;91.60
53520;DHT22;39397;53.204;5.778;2023-07-13T11:34:33;22.70;92.30
53520;DHT22;39397;53.204;5.778;2023-07-13T11:37:01;22.70;92.40
53520;DHT22;39397;53.204;5.778;2023-07-13T11:39:33;22.70;92.00
53520;DHT22;39397;53.204;5.778;2023-07-13T11:42:02;22.70;92.30
53520;DHT22;39397;53.204;5.778;2023-07-13T11:44:30;22.90;91.80
53520;DHT22;39397;53.204;5.778;2023-07-13T11:47:07;22.80;91.90
53520;DHT22;39397;53.204;5.778;2023-07-13T11:49:42;22.80;91.80
53520;DHT22;39397;53.204;5.778;2023-07-13T11:52:19;22.90;91.50
53520;DHT22;39397;53.204;5.778;2023-07-13T11:54:52;22.90;91.10
53520;DHT22;39397;53.204;5.778;2023-07-13T11:57:29;23.00;92.00
53520;DHT22;39397;53.204;5.778;2023-07-13T11:59:58;23.00;91.40
53520;DHT22;39397;53.204;5.778;2023-07-13T12:02:38;23.00;92.10
53520;DHT22;39397;53.204;5.778;2023-07-13T12:05:05;23.10;92.10
53520;DHT22;39397;53.204;5.778;2023-07-13T12:07:33;22.90;92.20
53520;DHT22;39397;53.204;5.778;2023-07-13T12:10:03;22.90;92.50
53520;DHT22;39397;53.204;5.778;2023-07-13T12:12:36;23.00;92.60
53520;DHT22;39397;53.204;5.778;2023-07-13T12:15:07;23.10;92.80
53520;DHT22;39397;53.204;5.778;2023-07-13T12:17:34;23.10;92.80
53520;DHT22;39397;53.204;5.778;2023-07-13T12:20:01;23.00;92.90
53520;DHT22;39397;53.204;5.778;2023-07-13T12:22:34;23.00;92.60
53520;DHT22;39397;53.204;5.778;2023-07-13T12:25:00;22.90;92.70
53520;DHT22;39397;53.204;5.778;2023-07-13T12:27:27;22.90;93.10
53520;DHT22;39397;53.204;5.778;2023-07-13T12:30:02;22.90;93.00
53520;DHT22;39397;53.204;5.778;2023-07-13T12:32:28;22.90;93.20
53520;DHT22;39397;53.204;5.778;2023-07-13T12:35:03;22.60;93.30
53520;DHT22;39397;53.204;5.778;2023-07-13T12:37:34;22.40;94.00
53520;DHT22;39397;53.204;5.778;2023-07-13T12:40:00;22.10;94.60
53520;DHT22;39397;53.204;5.778;2023-07-13T12:42:28;21.90;94.80
53520;DHT22;39397;53.204;5.778;2023-07-13T12:45:10;21.70;95.10
53520;DHT22;39397;53.204;5.778;2023-07-13T12:47:42;21.60;95.50
53520;DHT22;39397;53.204;5.778;2023-07-13T12:50:19;21.30;96.00
53520;DHT22;39397;53.204;5.778;2023-07-13T12:52:51;21.10;96.20
53520;DHT22;39397;53.204;5.778;2023-07-13T12:55:18;21.00;96.00
53520;DHT22;39397;53.204;5.778;2023-07-13T12:57:55;21.10;96.40
53520;DHT22;39397;53.204;5.778;2023-07-13T13:00:26;21.20;96.50
53520;DHT22;39397;53.204;5.778;2023-07-13T13:02:54;21.20;95.70
53520;DHT22;39397;53.204;5.778;2023-07-13T13:05:21;21.20;96.40
53520;DHT22;39397;53.204;5.778;2023-07-13T13:07:49;21.00;96.50
53520;DHT22;39397;53.204;5.778;2023-07-13T13:10:16;20.90;96.90
53520;DHT22;39397;53.204;5.778;2023-07-13T13:12:42;20.70;97.00
53520;DHT22;39397;53.204;5.778;2023-07-13T13:15:11;20.70;97.00
53520;DHT22;39397;53.204;5.778;2023-07-13T13:17:40;20.70;97.20
53520;DHT22;39397;53.204;5.778;2023-07-13T13:20:15;20.70;97.70
53520;DHT22;39397;53.204;5.778;2023-07-13T13:22:41;20.70;97.80
53520;DHT22;39397;53.204;5.778;2023-07-13T13:25:10;20.60;97.80
53520;DHT22;39397;53.204;5.778;2023-07-13T13:27:36;20.70;97.80
53520;DHT22;39397;53.204;5.778;2023-07-13T13:30:02;20.70;97.90
53520;DHT22;39397;53.204;5.778;2023-07-13T13:32:28;20.50;97.80
53520;DHT22;39397;53.204;5.778;2023-07-13T13:34:54;20.50;97.90
53520;DHT22;39397;53.204;5.778;2023-07-13T13:37:23;20.50;97.90
53520;DHT22;39397;53.204;5.778;2023-07-13T13:39:50;20.50;97.70
53520;DHT22;39397;53.204;5.778;2023-07-13T13:42:20;20.70;97.60
53520;DHT22;39397;53.204;5.778;2023-07-13T13:44:48;20.70;97.60
53520;DHT22;39397;53.204;5.778;2023-07-13T13:47:27;20.60;97.50
53520;DHT22;39397;53.204;5.778;2023-07-13T13:49:54;20.60;97.00
53520;DHT22;39397;53.204;5.778;2023-07-13T13:52:20;20.70;97.60
53520;DHT22;39397;53.204;5.778;2023-07-13T13:54:46;20.80;97.60
53520;DHT22;39397;53.204;5.778;2023-07-13T13:57:12;21.00;97.90
53520;DHT22;39397;53.204;5.778;2023-07-13T13:59:38;21.10;98.00
53520;DHT22;39397;53.204;5.778;2023-07-13T14:02:26;21.20;98.00
53520;DHT22;39397;53.204;5.778;2023-07-13T14:04:56;21.40;97.40
53520;DHT22;39397;53.204;5.778;2023-07-13T14:07:22;21.60;97.10
53520;DHT22;39397;53.204;5.778;2023-07-13T14:09:48;21.60;97.10
53520;DHT22;39397;53.204;5.778;2023-07-13T14:12:14;21.50;97.10
53520;DHT22;39397;53.204;5.778;2023-07-13T14:14:39;21.50;97.00
53520;DHT22;39397;53.204;5.778;2023-07-13T14:17:18;21.60;97.00
53520;DHT22;39397;53.204;5.778;2023-07-13T14:19:48;21.60;96.30
53520;DHT22;39397;53.204;5.778;2023-07-13T14:22:17;21.70;97.00
53520;DHT22;39397;53.204;5.778;2023-07-13T14:24:43;21.70;96.50
53520;DHT22;39397;53.204;5.778;2023-07-13T14:27:11;21.90;96.50
53520;DHT22;39397;53.204;5.778;2023-07-13T14:29:37;21.90;96.60
53520;DHT22;39397;53.204;5.778;2023-07-13T14:32:03;22.00;96.50
53520;DHT22;39397;53.204;5.778;2023-07-13T14:34:30;22.10;96.30
53520;DHT22;39397;53.204;5.778;2023-07-13T14:36:56;22.30;96.10
53520;DHT22;39397;53.204;5.778;2023-07-13T14:39:25;22.40;95.50
53520;DHT22;39397;53.204;5.778;2023-07-13T14:41:52;22.30;95.30
53520;DHT22;39397;53.204;5.778;2023-07-13T14:44:22;22.20;95.70
53520;DHT22;39397;53.204;5.778;2023-07-13T14:46:49;22.40;95.70
53520;DHT22;39397;53.204;5.778;2023-07-13T14:49:41;22.30;95.70
53520;DHT22;39397;53.204;5.778;2023-07-13T14:52:16;22.60;95.40
53520;DHT22;39397;53.204;5.778;2023-07-13T14:54:43;22.90;95.90
53520;DHT22;39397;53.204;5.778;2023-07-13T14:57:17;22.70;95.50
53520;DHT22;39397;53.204;5.778;2023-07-13T14:59:47;23.00;95.00
53520;DHT22;39397;53.204;5.778;2023-07-13T15:02:35;23.20;94.90
53520;DHT22;39397;53.204;5.778;2023-07-13T15:05:16;23.40;93.80
53520;DHT22;39397;53.204;5.778;2023-07-13T15:07:42;23.60;93.20
53520;DHT22;39397;53.204;5.778;2023-07-13T15:10:24;23.40;93.50
53520;DHT22;39397;53.204;5.778;2023-07-13T15:15:57;22.90;93.40
53520;DHT22;39397;53.204;5.778;2023-07-13T15:18:25;23.00;94.50
53520;DHT22;39397;53.204;5.778;2023-07-13T15:20:53;23.10;94.20
53520;DHT22;39397;53.204;5.778;2023-07-13T15:23:22;23.30;94.00
53520;DHT22;39397;53.204;5.778;2023-07-13T15:25:48;23.20;93.50
53520;DHT22;39397;53.204;5.778;2023-07-13T15:28:15;22.90;94.00
53520;DHT22;39397;53.204;5.778;2023-07-13T15:30:43;22.80;94.50
53520;DHT22;39397;53.204;5.778;2023-07-13T15:33:30;22.60;94.60
53520;DHT22;39397;53.204;5.778;2023-07-13T15:35:56;23.00;94.20
53520;DHT22;39397;53.204;5.778;2023-07-13T15:38:28;23.10;94.10
53520;DHT22;39397;53.204;5.778;2023-07-13T15:40:55;23.20;94.10
53520;DHT22;39397;53.204;5.778;2023-07-13T15:43:22;23.10;94.00
53520;DHT22;39397;53.204;5.778;2023-07-13T15:45:48;23.30;93.90
53520;DHT22;39397;53.204;5.778;2023-07-13T15:48:18;23.30;93.50
53520;DHT22;39397;53.204;5.778;2023-07-13T15:50:49;23.20;93.90
53520;DHT22;39397;53.204;5.778;2023-07-13T15:53:39;23.00;93.90
53520;DHT22;39397;53.204;5.778;2023-07-13T15:56:22;22.80;94.20
53520;DHT22;39397;53.204;5.778;2023-07-13T15:58:50;22.90;93.60
53520;DHT22;39397;53.204;5.778;2023-07-13T16:01:16;22.90;94.30
53520;DHT22;39397;53.204;5.778;2023-07-13T16:03:42;23.00;94.40
53520;DHT22;39397;53.204;5.778;2023-07-13T16:06:15;23.50;94.10
53520;DHT22;39397;53.204;5.778;2023-07-13T16:08:41;24.10;93.50
53520;DHT22;39397;53.204;5.778;2023-07-13T16:11:38;24.40;93.10
53520;DHT22;39397;53.204;5.778;2023-07-13T16:14:05;24.50;92.20
53520;DHT22;39397;53.204;5.778;2023-07-13T16:16:33;24.30;92.90
53520;DHT22;39397;53.204;5.778;2023-07-13T16:19:02;24.40;92.90